Time;durP1;ratioP1;P1;durP2;ratioP2;P2;SDS_P1;SDS_P2;PMS_P1;PMS_P2;Temp;Humidity;BMP_temperature;BMP_pressure;BME280_temperature;BME280_humidity;BME280_pressure;Samples;Min_cycle;Max_cycle;Signal;HPM_P1;HPM_P2
2021/03/16 00:01:58;;;;;;;122.87;61.15;;;;;;;-2.09;79.63;97277.88;1785782;80;21055;-72
2021/03/16 00:04:24;;;;;;;122.22;57.78;;;;;;;-2.07;80.89;97276.62;1785837;79;21118;-72
2021/03/16 00:06:50;;;;;;;122.37;61.65;;;;;;;-2.03;79.80;97277.02;1785896;80;21036;-72
2021/03/16 00:09:16;;;;;;;127.80;56.45;;;;;;;-2.08;79.48;97279.50;1785861;79;21048;-72
2021/03/16 00:11:43;;;;;;;126.10;59.67;;;;;;;-2.07;78.05;97281.94;1785796;80;22059;-72
2021/03/16 00:14:09;;;;;;;116.47;56.23;;;;;;;-2.14;80.63;97282.50;1785765;79;21297;-72
2021/03/16 00:16:35;;;;;;;124.75;56.68;;;;;;;-2.08;80.47;97290.13;1790055;79;21451;-72
2021/03/16 00:19:01;;;;;;;116.75;53.13;;;;;;;-2.11;79.54;97291.89;1797821;78;21145;-72
2021/03/16 00:21:27;;;;;;;97.88;47.17;;;;;;;-2.15;78.09;97282.72;1797919;79;21043;-72
2021/03/16 00:23:54;;;;;;;123.02;55.48;;;;;;;-2.21;77.80;97291.57;1797832;78;21189;-72
2021/03/16 00:26:20;;;;;;;110.88;54.53;;;;;;;-2.33;79.30;97287.45;1797732;79;21059;-72
2021/03/16 00:28:46;;;;;;;115.37;54.23;;;;;;;-2.32;81.45;97288.56;1797384;79;21530;-72
2021/03/16 00:31:12;;;;;;;107.83;50.33;;;;;;;-2.25;81.29;97289.84;1797297;78;21015;-72
2021/03/16 00:33:38;;;;;;;108.50;51.02;;;;;;;-2.17;79.91;97289.58;1797276;79;21109;-72
2021/03/16 00:36:05;;;;;;;103.80;49.27;;;;;;;-2.14;79.39;97291.78;1797258;78;21693;-72
2021/03/16 00:38:31;;;;;;;116.40;54.25;;;;;;;-2.11;80.32;97290.05;1797224;79;21078;-72
2021/03/16 00:40:57;;;;;;;101.95;50.30;;;;;;;-2.10;80.05;97294.84;1797287;78;21094;-72
2021/03/16 00:43:23;;;;;;;117.33;52.75;;;;;;;-2.12;80.60;97297.72;1797292;79;21148;-72
2021/03/16 00:45:49;;;;;;;103.60;48.73;;;;;;;-2.14;80.28;97290.46;1797287;78;21154;-72
2021/03/16 00:48:17;;;;;;;106.63;49.67;;;;;;;-2.11;79.54;97298.53;1797353;79;21527;-72
2021/03/16 00:50:43;;;;;;;95.07;47.25;;;;;;;-2.13;80.26;97289.46;1797161;78;21117;-72
2021/03/16 00:53:10;;;;;;;102.90;45.52;;;;;;;-2.17;78.23;97288.77;1797308;79;21131;-72
2021/03/16 00:55:37;;;;;;;92.75;44.05;;;;;;;-2.32;77.84;97295.19;1797214;78;21463;-72
2021/03/16 00:58:04;;;;;;;94.40;41.65;;;;;;;-2.43;77.82;97291.91;1797330;79;21123;-72
2021/03/16 01:00:30;;;;;;;86.57;39.42;;;;;;;-2.51;78.23;97290.03;1797282;78;21194;-72
2021/03/16 01:02:57;;;;;;;93.12;42.27;;;;;;;-2.64;79.31;97286.45;1797238;79;21086;-72
2021/03/16 01:05:23;;;;;;;87.67;41.13;;;;;;;-2.65;78.06;97282.66;1797228;78;21129;-73
2021/03/16 01:07:50;;;;;;;94.50;43.98;;;;;;;-2.76;80.62;97294.77;1797202;79;21067;-72
2021/03/16 01:10:18;;;;;;;83.03;39.83;;;;;;;-2.72;78.98;97289.87;1797230;78;21498;-72
2021/03/16 01:12:45;;;;;;;66.30;32.83;;;;;;;-2.72;78.20;97295.98;1797436;79;21111;-72
2021/03/16 01:15:14;;;;;;;83.78;38.05;;;;;;;-2.81;80.97;97283.19;1797230;78;21094;-72
2021/03/16 01:17:40;;;;;;;;;;;;;;;-2.73;78.80;97297.02;1791470;79;21018;-72
2021/03/16 01:20:13;;;;;;;88.87;42.58;;;;;;;-2.75;79.29;97292.92;1785314;79;20239;-72
2021/03/16 01:22:39;;;;;;;92.42;44.35;;;;;;;-2.78;80.49;97285.41;1785232;80;21107;-73
2021/03/16 01:25:07;;;;;;;84.75;43.13;;;;;;;-2.74;81.88;97290.05;1785288;79;21192;-71
2021/03/16 01:27:33;;;;;;;87.95;42.00;;;;;;;-2.66;80.68;97287.15;1754795;80;21134;-71
2021/03/16 01:29:59;;;;;;;90.42;41.40;;;;;;;-2.62;80.70;97287.55;1785270;79;21035;-71
2021/03/16 01:32:26;;;;;;;98.72;43.40;;;;;;;-2.59;80.02;97289.25;1785178;80;21075;-71
2021/03/16 01:34:52;;;;;;;89.55;41.20;;;;;;;-2.59;78.95;97292.42;1785284;79;21499;-71
2021/03/16 01:37:18;;;;;;;92.95;42.40;;;;;;;-2.65;80.10;97283.50;1785172;80;21266;-71
2021/03/16 01:39:45;;;;;;;89.72;44.35;;;;;;;-2.62;79.52;97283.58;1785081;79;21141;-71
2021/03/16 01:42:12;;;;;;;90.30;42.90;;;;;;;-2.66;80.76;97277.05;1785331;80;21047;-72
2021/03/16 01:44:42;;;;;;;88.55;40.73;;;;;;;-2.62;79.96;97276.43;1785245;79;21023;-72
2021/03/16 01:47:07;;;;;;;93.70;46.73;;;;;;;-2.60;80.79;97281.00;1785159;80;21515;-72
2021/03/16 01:49:33;;;;;;;83.45;39.92;;;;;;;-2.64;81.84;97275.84;1785192;79;21274;-72
2021/03/16 01:52:02;;;;;;;83.80;41.45;;;;;;;-2.55;80.03;97279.05;1785208;80;21035;-72
2021/03/16 01:54:27;;;;;;;82.40;40.53;;;;;;;-2.56;78.93;97274.77;1785424;79;21078;-72
2021/03/16 01:56:53;;;;;;;84.90;42.58;;;;;;;-2.63;78.69;97280.63;1785144;80;21825;-72
2021/03/16 01:59:20;;;;;;;80.65;41.18;;;;;;;-2.70;78.67;97282.50;1785197;79;21023;-72
2021/03/16 02:01:46;;;;;;;76.77;38.70;;;;;;;-2.75;80.10;97283.64;1785177;80;21202;-72
2021/03/16 02:04:12;;;;;;;81.75;39.10;;;;;;;-2.75;78.78;97279.66;1785206;79;21613;-72
2021/03/16 02:06:47;;;;;;;82.25;39.03;;;;;;;-2.82;78.64;97277.55;1785143;80;21035;-72
2021/03/16 02:09:39;;;;;;;73.37;37.08;;;;;;;-2.83;80.11;97287.35;1785204;79;21031;-71
2021/03/16 02:12:17;;;;;;;77.45;38.95;;;;;;;-2.75;80.72;97286.30;1785279;80;21094;-72
2021/03/16 02:14:53;;;;;;;86.40;36.28;;;;;;;-2.74;81.38;97296.69;1785137;79;21140;-73
2021/03/16 02:17:32;;;;;;;79.55;37.85;;;;;;;-2.74;81.15;97298.01;1784817;79;21055;-71
2021/03/16 02:20:16;;;;;;;76.82;33.95;;;;;;;-2.77;81.22;97301.09;1783547;79;21067;-71
2021/03/16 02:22:43;;;;;;;82.02;37.55;;;;;;;-2.76;80.85;97300.06;1785277;79;21464;-72
2021/03/16 02:25:17;;;;;;;77.30;36.85;;;;;;;-2.74;80.34;97295.87;1754737;80;21114;-72
2021/03/16 02:28:07;;;;;;;85.25;39.58;;;;;;;-2.72;80.33;97295.17;1784849;80;21530;-72
2021/03/16 02:30:33;;;;;;;82.85;39.15;;;;;;;-2.71;80.31;97298.13;1782487;79;21154;-72
2021/03/16 02:33:00;;;;;;;92.80;40.65;;;;;;;-2.74;79.46;97298.01;1754920;80;21048;-72
2021/03/16 02:35:26;;;;;;;82.12;41.42;;;;;;;-2.82;79.51;97293.47;1785239;79;21055;-72
2021/03/16 02:37:53;;;;;;;86.00;39.90;;;;;;;-2.90;79.80;97297.20;1785140;80;21035;-72
2021/03/16 02:40:19;;;;;;;79.47;37.45;;;;;;;-2.88;79.22;97297.28;1785232;79;21251;-72
2021/03/16 02:42:45;;;;;;;75.22;35.50;;;;;;;-2.96;78.84;97297.53;1785182;80;21110;-72
2021/03/16 02:45:12;;;;;;;74.20;37.85;;;;;;;-3.04;78.83;97302.26;1754814;80;21098;-72
2021/03/16 02:47:39;;;;;;;70.12;33.67;;;;;;;-3.09;80.10;97298.08;1785105;80;21043;-72
2021/03/16 02:50:08;;;;;;;64.82;30.90;;;;;;;-3.03;79.19;97295.41;1785251;79;21071;-72
2021/03/16 02:52:35;;;;;;;70.05;32.78;;;;;;;-3.03;79.01;97302.55;1785115;79;21227;-72
2021/03/16 02:55:01;;;;;;;60.05;30.27;;;;;;;-3.06;79.01;97305.64;1754714;80;21023;-72
2021/03/16 02:57:28;;;;;;;60.38;29.57;;;;;;;-3.10;80.46;97307.06;1754793;80;21039;-72
2021/03/16 02:59:54;;;;;;;58.23;29.18;;;;;;;-3.09;80.21;97306.03;1785146;79;21067;-72
2021/03/16 03:02:20;;;;;;;67.97;30.08;;;;;;;-3.03;80.00;97304.69;1785151;80;21026;-72
2021/03/16 03:04:47;;;;;;;57.05;28.12;;;;;;;-3.03;79.30;97304.69;1785215;79;22025;-72
2021/03/16 03:07:13;;;;;;;71.50;33.78;;;;;;;-3.04;79.34;97311.53;1785194;80;21547;-72
2021/03/16 03:09:39;;;;;;;69.87;32.85;;;;;;;-3.09;80.67;97313.47;1785107;79;21071;-72
2021/03/16 03:12:08;;;;;;;83.78;35.58;;;;;;;-3.08;81.20;97312.96;1785119;80;21031;-72
2021/03/16 03:14:36;;;;;;;79.45;34.98;;;;;;;-3.07;80.32;97320.73;1784652;79;21075;-72
2021/03/16 03:17:03;;;;;;;74.30;35.13;;;;;;;-3.06;79.98;97319.70;1755075;79;21394;-72
2021/03/16 03:19:29;;;;;;;66.25;34.50;;;;;;;-3.14;80.52;97323.91;1785105;79;21545;-72
2021/03/16 03:22:16;;;;;;;67.27;33.38;;;;;;;-3.14;80.14;97324.72;1785119;80;21150;-72
2021/03/16 03:24:49;;;;;;;74.97;35.33;;;;;;;-3.19;78.98;97319.73;1785227;79;21019;-72
2021/03/16 03:27:22;;;;;;;63.23;32.42;;;;;;;-3.29;79.03;97323.34;1785124;80;21063;-73
2021/03/16 03:29:48;;;;;;;67.65;32.93;;;;;;;-3.37;78.67;97331.00;1785133;79;21195;-73
2021/03/16 03:32:16;;;;;;;72.97;33.55;;;;;;;-3.45;78.98;97324.60;1785041;80;21126;-73
2021/03/16 03:34:42;;;;;;;68.57;33.73;;;;;;;-3.47;79.50;97327.46;1785089;79;21039;-73
2021/03/16 03:37:08;;;;;;;77.65;35.85;;;;;;;-3.48;80.22;97330.33;1785128;80;21031;-71
2021/03/16 03:39:34;;;;;;;66.35;32.85;;;;;;;-3.42;79.90;97332.97;1785129;79;21075;-71
2021/03/16 03:42:00;;;;;;;72.35;31.57;;;;;;;-3.38;79.35;97332.03;1754708;80;22144;-71
2021/03/16 03:44:27;;;;;;;71.20;31.57;;;;;;;-3.35;78.87;97328.95;1785061;79;21479;-71
2021/03/16 03:46:53;;;;;;;76.62;34.30;;;;;;;-3.32;78.92;97328.55;1785095;79;21153;-71
2021/03/16 03:49:19;;;;;;;75.37;35.70;;;;;;;-3.28;80.17;97327.62;1785201;79;21016;-71
2021/03/16 03:51:47;;;;;;;69.22;31.02;;;;;;;-3.28;80.49;97331.08;1785160;80;21113;-71
2021/03/16 03:54:14;;;;;;;77.05;36.10;;;;;;;-3.24;80.80;97334.14;1755084;79;21565;-71
2021/03/16 03:56:40;;;;;;;68.22;33.85;;;;;;;-3.14;80.42;97331.34;1785020;80;21090;-71
2021/03/16 03:59:06;;;;;;;61.15;31.20;;;;;;;-3.06;79.87;97329.49;1785078;79;21107;-71
2021/03/16 04:01:32;;;;;;;70.42;35.60;;;;;;;-3.04;79.65;97328.77;1785196;80;21586;-71
2021/03/16 04:04:00;;;;;;;69.40;32.35;;;;;;;-3.03;79.89;97331.71;1785201;79;21019;-71
2021/03/16 04:06:27;;;;;;;76.50;31.75;;;;;;;-2.96;79.66;97335.16;1785363;80;21964;-73
2021/03/16 04:08:53;;;;;;;73.37;34.40;;;;;;;-2.90;79.75;97327.70;1785158;79;21157;-72
2021/03/16 04:11:20;;;;;;;70.67;31.48;;;;;;;-2.86;79.84;97339.49;1785262;80;21079;-73
2021/03/16 04:13:50;;;;;;;64.40;30.70;;;;;;;-2.80;79.97;97343.15;1785227;80;21123;-72
2021/03/16 04:16:16;;;;;;;162.72;66.10;;;;;;;-2.78;79.10;97343.75;1785360;80;21106;-72
2021/03/16 04:18:43;;;;;;;158.68;64.67;;;;;;;-2.78;79.66;97347.21;1785156;79;21192;-72
2021/03/16 04:21:10;;;;;;;180.12;84.25;;;;;;;-2.79;79.31;97348.75;1785174;79;21523;-73
2021/03/16 04:23:36;;;;;;;88.60;43.87;;;;;;;-2.74;79.26;97341.77;1754844;80;21123;-72
2021/03/16 04:26:03;;;;;;;93.27;46.28;;;;;;;-2.71;78.71;97341.37;1785325;79;21146;-72
2021/03/16 04:28:29;;;;;;;85.60;41.55;;;;;;;-2.75;78.47;97344.12;1785259;79;21043;-72
2021/03/16 04:30:55;;;;;;;82.47;39.27;;;;;;;-2.90;79.13;97339.63;1785305;79;21192;-72
2021/03/16 04:33:21;;;;;;;84.00;43.55;;;;;;;-2.88;78.48;97341.55;1785165;80;21067;-72
2021/03/16 04:35:47;;;;;;;123.22;57.67;;;;;;;-2.90;79.34;97347.58;1785296;79;21083;-72
2021/03/16 04:38:14;;;;;;;102.92;47.30;;;;;;;-2.90;79.45;97348.39;1785225;79;21130;-72
2021/03/16 04:40:41;;;;;;;69.12;33.05;;;;;;;-2.80;79.22;97349.27;1785223;79;21019;-72
2021/03/16 04:43:08;;;;;;;80.65;39.98;;;;;;;-2.84;79.31;97350.70;1785329;80;21260;-72
2021/03/16 04:45:34;;;;;;;73.75;33.83;;;;;;;-2.85;78.80;97351.72;1785151;79;21484;-72
2021/03/16 04:48:00;;;;;;;74.22;32.58;;;;;;;-2.91;78.27;97348.06;1785213;80;21015;-72
2021/03/16 04:50:26;;;;;;;75.90;33.33;;;;;;;-2.97;77.87;97350.77;1785315;79;21491;-72
2021/03/16 04:52:52;;;;;;;79.20;36.85;;;;;;;-3.11;79.15;97356.61;1785232;79;21102;-72
2021/03/16 04:55:19;;;;;;;65.28;30.82;;;;;;;-3.13;79.60;97351.53;1785195;79;21138;-72
2021/03/16 04:57:45;;;;;;;60.35;27.70;;;;;;;-3.11;80.05;97356.61;1785222;80;21511;-72
2021/03/16 05:00:12;;;;;;;60.28;30.02;;;;;;;-3.11;78.66;97367.22;1785217;79;21086;-72
2021/03/16 05:02:38;;;;;;;69.35;26.85;;;;;;;-3.20;78.18;97362.66;1785195;80;21032;-72
2021/03/16 05:05:19;;;;;;;59.50;30.60;;;;;;;-3.35;78.95;97363.39;1785288;79;21094;-72
2021/03/16 05:07:46;;;;;;;54.75;28.17;;;;;;;-3.38;78.48;97366.47;1785193;80;21238;-72
2021/03/16 05:10:12;;;;;;;68.37;31.07;;;;;;;-3.37;78.74;97358.02;1785150;79;21110;-72
2021/03/16 05:12:39;;;;;;;63.42;33.18;;;;;;;-3.33;79.74;97363.19;1785250;80;21566;-72
2021/03/16 05:15:09;;;;;;;64.47;29.07;;;;;;;-3.32;80.25;97374.92;1785288;79;21495;-72
2021/03/16 05:17:35;;;;;;;70.80;32.85;;;;;;;-3.28;79.09;97365.52;1786514;79;21101;-72
2021/03/16 05:20:01;;;;;;;78.07;34.70;;;;;;;-3.37;79.16;97371.26;1780792;79;21192;-72
2021/03/16 05:22:27;;;;;;;73.17;30.90;;;;;;;-3.42;79.96;97366.08;1780789;80;21138;-72
2021/03/16 05:24:53;;;;;;;75.00;34.33;;;;;;;-3.39;78.95;97362.20;1780799;79;21102;-72
2021/03/16 05:27:19;;;;;;;82.25;34.40;;;;;;;-3.45;79.07;97373.61;1780861;80;21562;-72
2021/03/16 05:29:46;;;;;;;121.85;49.80;;;;;;;-3.50;79.45;97370.78;1780814;79;21091;-72
2021/03/16 05:32:12;;;;;;;196.63;107.00;;;;;;;-3.49;79.55;97376.38;1780792;80;21142;-72
2021/03/16 05:34:38;;;;;;;102.02;48.98;;;;;;;-3.49;79.26;97375.05;1780653;79;21035;-72
2021/03/16 05:37:04;;;;;;;77.15;34.85;;;;;;;-3.45;78.85;97371.77;1780852;80;21142;-72
2021/03/16 05:39:30;;;;;;;76.20;34.95;;;;;;;-3.39;78.50;97383.91;1731877;81;21100;-72
2021/03/16 05:41:56;;;;;;;82.70;32.85;;;;;;;-3.34;78.39;97387.55;1780899;80;21126;-72
2021/03/16 05:44:22;;;;;;;75.95;33.30;;;;;;;-3.35;78.08;97393.87;1731892;81;21211;-72
2021/03/16 05:46:48;;;;;;;63.63;30.52;;;;;;;-3.45;78.19;97395.62;1780695;80;21112;-72
2021/03/16 05:49:16;;;;;;;70.62;31.07;;;;;;;-3.44;79.17;97399.08;1731985;81;21464;-72
2021/03/16 05:51:42;;;;;;;65.42;30.08;;;;;;;-3.32;80.78;97397.96;1780806;80;21103;-72
2021/03/16 05:54:09;;;;;;;67.78;32.00;;;;;;;-3.22;78.97;97400.99;1731917;81;21049;-72
2021/03/16 05:56:35;;;;;;;82.65;36.13;;;;;;;-3.19;79.10;97398.73;1780829;80;21197;-72
2021/03/16 05:59:04;;;;;;;75.22;33.67;;;;;;;-3.10;80.16;97403.30;1762178;81;21061;-72
2021/03/16 06:01:30;;;;;;;76.35;34.48;;;;;;;-3.02;79.39;97413.67;1780750;80;21149;-72
2021/03/16 06:03:56;;;;;;;99.35;38.73;;;;;;;-2.96;78.68;97407.55;1731876;81;21108;-72
2021/03/16 06:06:23;;;;;;;73.97;37.83;;;;;;;-2.87;78.77;97408.14;1780849;80;21162;-72
2021/03/16 06:08:49;;;;;;;83.50;37.70;;;;;;;-2.77;79.55;97416.46;1762054;81;21214;-72
2021/03/16 06:11:15;;;;;;;88.55;39.92;;;;;;;-2.66;78.88;97417.13;1780795;80;21106;-72
2021/03/16 06:13:55;;;;;;;96.08;40.40;;;;;;;-2.66;78.64;97418.45;1731853;82;21072;-72
2021/03/16 06:16:25;;;;;;;93.37;43.98;;;;;;;-2.59;78.18;97419.24;1780711;80;21083;-71
2021/03/16 06:18:51;;;;;;;93.87;45.95;;;;;;;-2.52;78.09;97411.27;1729298;82;21451;-72
2021/03/16 06:21:19;;;;;;;95.83;43.25;;;;;;;-2.42;77.97;97420.09;1732515;82;22040;-72
2021/03/16 06:23:57;;;;;;;85.85;42.25;;;;;;;-2.33;78.01;97418.82;1785274;80;21078;-72
2021/03/16 06:26:25;;;;;;;67.95;30.17;;;;;;;-2.21;77.94;97425.10;1785416;80;21503;-71
2021/03/16 06:28:52;;;;;;;90.47;39.05;;;;;;;-2.15;77.65;97426.06;1785068;79;21039;-71
2021/03/16 06:31:24;;;;;;;79.75;40.08;;;;;;;-2.05;77.44;97425.92;1785307;80;21463;-71
2021/03/16 06:33:52;;;;;;;86.50;40.88;;;;;;;-1.97;77.26;97429.33;1785118;79;21262;-71
2021/03/16 06:36:26;;;;;;;78.50;38.88;;;;;;;-1.90;77.37;97432.77;1785348;80;21086;-72
2021/03/16 06:38:53;;;;;;;78.95;36.15;;;;;;;-1.79;77.95;97434.75;1758446;79;21405;-72
2021/03/16 06:41:21;;;;;;;70.72;34.90;;;;;;;-1.63;78.06;97433.38;1785249;80;21554;-73
2021/03/16 06:44:02;;;;;;;68.50;33.87;;;;;;;-1.43;77.91;97442.03;1785402;80;21114;-73
2021/03/16 06:46:37;;;;;;;77.45;40.38;;;;;;;-1.22;77.84;97438.97;1755056;80;22698;-72
2021/03/16 06:49:18;;;;;;;79.42;39.98;;;;;;;-0.97;77.64;97436.80;1785017;80;21137;-72
2021/03/16 06:51:47;;;;;;;88.97;43.73;;;;;;;-0.80;77.32;97447.15;1785238;80;21553;-72
2021/03/16 06:54:18;;;;;;;94.67;41.98;;;;;;;-0.51;77.00;97446.95;1779547;79;21063;-72
2021/03/16 06:56:56;;;;;;;88.20;41.98;;;;;;;-0.20;76.52;97451.26;1785227;80;21074;-73
2021/03/16 06:59:29;;;;;;;75.92;39.48;;;;;;;0.03;75.86;97453.22;1785226;79;21141;-72
2021/03/16 07:01:58;;;;;;;92.05;45.00;;;;;;;0.20;75.96;97450.20;1785081;80;21062;-73
2021/03/16 07:04:32;;;;;;;137.28;60.83;;;;;;;0.24;75.55;97456.69;1785109;79;21448;-73
2021/03/16 07:07:01;;;;;;;155.75;61.95;;;;;;;0.12;75.27;97459.04;1785185;80;21078;-72
2021/03/16 07:09:32;;;;;;;78.83;37.77;;;;;;;0.08;75.68;97465.84;1785430;79;21142;-72
2021/03/16 07:11:58;;;;;;;58.83;32.50;;;;;;;0.09;75.39;97466.97;1785115;80;21468;-72
2021/03/16 07:14:34;;;;;;;562.17;248.83;;;;;;;0.04;75.52;97472.67;1779736;79;21178;-72
2021/03/16 07:17:06;;;;;;;116.10;56.53;;;;;;;0.04;75.73;97466.02;1784882;80;21102;-72
2021/03/16 07:19:36;;;;;;;73.87;35.83;;;;;;;-0.14;76.72;97473.00;1757191;80;21502;-72
2021/03/16 07:22:05;;;;;;;65.25;33.95;;;;;;;-0.08;76.22;97471.30;1785111;80;21102;-72
2021/03/16 07:24:34;;;;;;;74.62;36.33;;;;;;;-0.05;76.13;97466.33;1785081;79;22158;-72
2021/03/16 07:27:09;;;;;;;64.37;34.15;;;;;;;-0.04;76.55;97477.80;1785105;80;21055;-72
2021/03/16 07:29:38;;;;;;;71.65;36.30;;;;;;;-0.05;76.32;97479.64;1785114;79;21122;-72
2021/03/16 07:32:07;;;;;;;73.02;37.38;;;;;;;-0.03;76.41;97484.22;1785148;80;21098;-73
2021/03/16 07:34:41;;;;;;;85.62;43.10;;;;;;;0.04;76.55;97480.67;1719637;80;21408;-72
2021/03/16 07:37:11;;;;;;;81.02;39.08;;;;;;;0.15;76.76;97486.03;1785125;80;22068;-72
2021/03/16 07:39:42;;;;;;;71.75;36.68;;;;;;;0.18;76.62;97488.27;1785151;79;21096;-71
2021/03/16 07:42:12;;;;;;;75.37;36.00;;;;;;;0.24;76.58;97493.19;1757831;80;21071;-72
2021/03/16 07:44:46;;;;;;;59.60;27.05;;;;;;;0.27;76.54;97490.09;1785204;79;21030;-73
2021/03/16 07:47:12;;;;;;;69.85;36.48;;;;;;;0.37;75.90;97495.68;1785447;80;21444;-72
2021/03/16 07:49:39;;;;;;;82.88;42.58;;;;;;;0.34;76.67;97500.11;1785328;79;22089;-72
2021/03/16 07:52:22;;;;;;;78.00;39.15;;;;;;;0.39;76.73;97500.78;1785376;80;21074;-72
2021/03/16 07:54:52;;;;;;;216.97;107.63;;;;;;;0.43;76.52;97505.97;1785246;79;21031;-72
2021/03/16 07:57:31;;;;;;;89.77;47.55;;;;;;;0.43;76.86;97502.78;1785321;80;21134;-72
2021/03/16 07:59:59;;;;;;;91.85;45.48;;;;;;;0.58;76.30;97506.86;1785362;79;21047;-72
2021/03/16 08:02:29;;;;;;;107.37;55.12;;;;;;;0.61;76.07;97505.09;1785287;80;21263;-73
2021/03/16 08:04:55;;;;;;;148.03;78.60;;;;;;;0.68;75.95;97508.44;1785404;79;21078;-72
2021/03/16 08:07:34;;;;;;;96.72;56.15;;;;;;;0.82;76.16;97512.53;1785307;80;21476;-73
2021/03/16 08:10:01;;;;;;;73.47;41.10;;;;;;;0.96;75.67;97504.62;1785320;79;21039;-72
2021/03/16 08:12:32;;;;;;;86.35;39.00;;;;;;;1.04;75.68;97508.28;1785382;80;21062;-71
2021/03/16 08:15:15;;;;;;;94.80;44.93;;;;;;;1.09;75.31;97509.72;1785158;79;23429;-72
2021/03/16 08:17:43;;;;;;;100.90;46.70;;;;;;;1.08;74.63;97514.77;1785262;80;21086;-73
2021/03/16 08:20:15;;;;;;;118.87;52.78;;;;;;;0.95;74.31;97515.00;1780542;78;21122;-73
2021/03/16 08:22:42;;;;;;;133.70;64.92;;;;;;;0.83;74.38;97521.63;1774822;80;21059;-73
2021/03/16 08:25:10;;;;;;;124.12;60.65;;;;;;;0.85;74.84;97520.06;1778116;79;21008;-73
2021/03/16 08:27:39;;;;;;;113.00;58.02;;;;;;;0.89;74.92;97523.11;1778081;80;21182;-73
2021/03/16 08:30:08;;;;;;;116.73;59.42;;;;;;;0.99;75.10;97514.01;1778171;79;21086;-73
2021/03/16 08:32:36;;;;;;;101.30;47.00;;;;;;;1.06;74.56;97522.72;1777663;80;21118;-73
2021/03/16 08:35:02;;;;;;;116.00;56.55;;;;;;;1.11;74.15;97521.48;1778015;79;21031;-73
2021/03/16 08:37:33;;;;;;;155.10;71.40;;;;;;;1.04;74.35;97518.95;1778044;80;21114;-74
2021/03/16 08:40:00;;;;;;;99.40;51.60;;;;;;;1.17;74.63;97517.91;1778122;79;21259;-73
2021/03/16 08:42:28;;;;;;;121.02;56.40;;;;;;;1.29;74.46;97519.26;1778022;80;21108;-73
2021/03/16 08:44:57;;;;;;;100.70;52.38;;;;;;;1.36;74.12;97523.94;1777990;79;21087;-73
2021/03/16 08:47:27;;;;;;;85.50;46.10;;;;;;;1.40;73.62;97525.11;1778162;80;21495;-73
2021/03/16 08:49:56;;;;;;;103.30;49.10;;;;;;;1.43;73.43;97528.64;1778087;79;21130;-73
2021/03/16 08:52:25;;;;;;;103.07;50.30;;;;;;;1.37;73.33;97526.92;1778259;80;21261;-73
2021/03/16 08:54:53;;;;;;;108.45;53.08;;;;;;;1.39;73.58;97534.17;1778041;79;21090;-73
2021/03/16 08:57:26;;;;;;;110.10;57.00;;;;;;;1.46;73.54;97528.72;1778220;80;21102;-73
2021/03/16 08:59:56;;;;;;;106.78;54.33;;;;;;;1.60;73.41;97538.91;1777519;79;21063;-73
2021/03/16 09:02:29;;;;;;;111.77;53.70;;;;;;;1.73;73.34;97529.03;1778094;80;21062;-74
2021/03/16 09:04:58;;;;;;;109.25;51.37;;;;;;;1.94;73.33;97535.08;1754173;80;21200;-71
2021/03/16 09:07:33;;;;;;;93.70;48.30;;;;;;;2.15;72.82;97533.64;1778124;80;21098;-72
2021/03/16 09:10:16;;;;;;;99.92;52.78;;;;;;;2.33;72.46;97528.64;1777979;79;21015;-72
2021/03/16 09:12:53;;;;;;;122.33;57.13;;;;;;;2.40;72.49;97525.30;1778099;80;21098;-73
2021/03/16 09:15:31;;;;;;;103.38;50.33;;;;;;;2.54;72.07;97530.09;1753985;80;21012;-73
2021/03/16 09:18:06;;;;;;;106.85;56.42;;;;;;;2.62;71.91;97530.23;1778009;80;21230;-72
2021/03/16 09:20:38;;;;;;;175.65;99.13;;;;;;;2.70;72.17;97526.36;1782674;78;21059;-72
2021/03/16 09:23:09;;;;;;;172.50;91.37;;;;;;;2.87;72.07;97527.19;1785282;80;21086;-72
2021/03/16 09:25:42;;;;;;;126.92;59.20;;;;;;;3.12;72.17;97526.80;1785165;79;21102;-72
2021/03/16 09:28:12;;;;;;;158.55;65.15;;;;;;;3.38;71.81;97528.80;1785261;80;21083;-72
2021/03/16 09:30:52;;;;;;;161.47;67.80;;;;;;;3.53;70.82;97524.21;1785184;79;21408;-73
2021/03/16 09:33:22;;;;;;;135.28;61.20;;;;;;;3.49;70.73;97526.27;1785194;80;21096;-72
2021/03/16 09:35:58;;;;;;;156.28;75.90;;;;;;;3.40;71.17;97532.58;1785167;79;21044;-72
2021/03/16 09:38:26;;;;;;;194.52;97.42;;;;;;;3.40;71.60;97534.72;1785232;80;21126;-71
2021/03/16 09:40:52;;;;;;;173.87;83.20;;;;;;;3.41;71.69;97539.55;1785112;79;21484;-71
2021/03/16 09:43:31;;;;;;;156.80;76.20;;;;;;;3.48;71.63;97536.70;1785183;80;21190;-71
2021/03/16 09:48:55;;;;;;;142.72;74.17;;;;;;;3.66;70.90;97535.90;1847596;76;22639;-71
2021/03/16 09:51:26;;;;;;;135.68;69.55;;;;;;;3.58;70.96;97543.02;1785999;80;21451;-71
2021/03/16 09:53:57;;;;;;;114.28;58.02;;;;;;;3.70;71.52;97539.45;1785966;79;21196;-71
2021/03/16 09:56:33;;;;;;;100.00;49.40;;;;;;;3.92;71.19;97535.70;1785885;80;20952;-72
2021/03/16 09:59:02;;;;;;;136.97;66.85;;;;;;;4.08;71.29;97539.93;1785924;79;21496;-71
2021/03/16 10:01:28;;;;;;;;;;;;;;;4.41;71.40;97541.66;1788484;80;20952;-72
2021/03/16 10:03:57;;;;;;;87.40;44.15;;;;;;;4.78;70.91;97540.43;1785904;79;20517;-72
2021/03/16 10:06:36;;;;;;;87.60;40.55;;;;;;;4.92;70.41;97544.33;1785931;80;21195;-72
2021/03/16 10:09:17;;;;;;;72.82;41.88;;;;;;;5.08;69.73;97541.25;1785604;79;21511;-71
2021/03/16 10:11:43;;;;;;;69.22;36.28;;;;;;;5.19;69.91;97538.11;1785852;80;21100;-71
2021/03/16 10:14:10;;;;;;;58.70;33.28;;;;;;;5.45;69.64;97532.39;1785858;79;21244;-71
2021/03/16 10:16:41;;;;;;;69.82;37.28;;;;;;;5.57;68.93;97535.18;1785946;80;21066;-71
2021/03/16 10:19:07;;;;;;;52.85;29.35;;;;;;;5.61;69.17;97532.23;1786048;79;22030;-71
2021/03/16 10:21:35;;;;;;;48.13;25.75;;;;;;;5.69;69.08;97536.86;1785793;80;20992;-71
2021/03/16 10:24:04;;;;;;;54.10;30.05;;;;;;;5.38;67.72;97541.51;1786096;79;21133;-71
2021/03/16 10:26:31;;;;;;;57.08;32.10;;;;;;;5.29;68.43;97541.68;1785859;80;21554;-72
2021/03/16 10:29:09;;;;;;;64.07;30.50;;;;;;;5.18;68.83;97544.55;1785921;79;21079;-72
2021/03/16 10:31:35;;;;;;;85.90;39.00;;;;;;;4.94;69.66;97548.09;1786108;80;21469;-73
2021/03/16 10:34:02;;;;;;;65.10;33.42;;;;;;;4.92;70.37;97547.55;1785870;79;21554;-73
2021/03/16 10:36:34;;;;;;;68.35;33.92;;;;;;;4.76;70.28;97547.40;1785821;80;21142;-70
2021/03/16 10:38:56;;;;;;;62.62;32.13;;;;;;;4.59;71.27;97548.56;1784872;79;21094;-72
2021/03/16 10:41:22;;;;;;;57.67;28.95;;;;;;;4.61;71.46;97544.55;1785960;80;21566;-72
2021/03/16 10:43:48;;;;;;;46.65;26.75;;;;;;;4.65;71.01;97543.53;1785776;80;21204;-72
2021/03/16 10:46:14;;;;;;;52.23;27.13;;;;;;;4.73;71.23;97546.58;1785798;80;21508;-72
2021/03/16 10:48:41;;;;;;;49.05;26.77;;;;;;;4.72;71.03;97548.17;1785792;79;21173;-72
2021/03/16 10:51:07;;;;;;;52.50;27.87;;;;;;;5.06;70.89;97542.05;1785824;79;21439;-72
2021/03/16 10:53:34;;;;;;;63.45;33.63;;;;;;;5.18;70.13;97541.33;1785906;80;21122;-72
2021/03/16 10:56:04;;;;;;;49.77;23.98;;;;;;;5.10;69.82;97549.86;1785812;79;21153;-72
2021/03/16 10:58:31;;;;;;;37.03;20.23;;;;;;;5.13;69.31;97545.34;1785584;79;21149;-71
2021/03/16 11:00:59;;;;;;;35.45;19.92;;;;;;;5.21;67.71;97540.00;1785226;79;21062;-71
2021/03/16 11:03:25;;;;;;;32.45;19.23;;;;;;;5.19;67.71;97544.30;1785506;80;21046;-72
2021/03/16 11:05:51;;;;;;;53.17;26.65;;;;;;;5.17;67.39;97545.63;1785265;79;21094;-72
2021/03/16 11:08:17;;;;;;;41.50;22.77;;;;;;;5.29;67.75;97547.05;1785306;80;21244;-72
2021/03/16 11:10:43;;;;;;;37.42;22.22;;;;;;;5.44;67.22;97542.33;1785202;79;21079;-72
2021/03/16 11:13:09;;;;;;;81.35;51.80;;;;;;;5.37;67.21;97542.55;1785245;80;21024;-72
2021/03/16 11:15:35;;;;;;;56.88;40.63;;;;;;;5.30;67.29;97539.83;1785226;79;21027;-72
2021/03/16 11:18:02;;;;;;;47.65;23.92;;;;;;;5.56;67.34;97540.82;1785339;80;21059;-72
2021/03/16 11:20:28;;;;;;;30.95;18.45;;;;;;;5.47;66.54;97535.12;1785332;79;22019;-72
2021/03/16 11:22:54;;;;;;;31.57;19.42;;;;;;;5.54;66.06;97529.50;1785257;80;21110;-72
2021/03/16 11:25:20;;;;;;;43.52;20.05;;;;;;;5.82;65.72;97539.09;1785323;79;21098;-72
2021/03/16 11:27:46;;;;;;;25.77;16.10;;;;;;;5.93;65.72;97538.91;1785269;80;21400;-72
2021/03/16 11:30:13;;;;;;;32.25;19.92;;;;;;;5.65;64.41;97536.58;1730001;80;21118;-72